Time;durP1;ratioP1;P1;durP2;ratioP2;P2;SDS_P1;SDS_P2;PMS_P1;PMS_P2;Temp;Humidity;BMP_temperature;BMP_pressure;BME280_temperature;BME280_humidity;BME280_pressure;Samples;Min_cycle;Max_cycle;Signal;HPM_P1;HPM_P2
2024/01/19 00:00:45;;;;;;;4.55;0.50;;;0.40;99.90;;;;;;5079547;28;20078;-62
2024/01/19 00:03:11;;;;;;;5.45;1.30;;;-0.40;99.90;;;;;;5079559;28;20052;-63
2024/01/19 00:05:37;;;;;;;1.70;0.60;;;0.10;99.90;;;;;;5078871;28;20046;-62
2024/01/19 00:08:03;;;;;;;2.53;0.47;;;0.20;99.90;;;;;;5061185;28;20415;-62
2024/01/19 00:10:30;;;;;;;1.70;0.43;;;0.60;99.90;;;;;;5079417;28;20119;-62
2024/01/19 00:12:56;;;;;;;1.55;0.55;;;0.10;99.90;;;;;;5079417;28;20100;-62
2024/01/19 00:15:22;;;;;;;1.10;0.38;;;0.90;99.90;;;;;;5079441;28;20060;-62
2024/01/19 00:17:47;;;;;;;2.13;0.95;;;0.10;99.90;;;;;;5079453;28;20043;-62
2024/01/19 00:20:13;;;;;;;5.70;0.60;;;0.90;99.90;;;;;;5079184;28;20723;-62
2024/01/19 00:22:39;;;;;;;1.35;0.98;;;-0.20;99.90;;;;;;5060381;28;20134;-62
2024/01/19 00:25:05;;;;;;;3.92;0.70;;;0.00;99.90;;;;;;5077515;28;20082;-62
2024/01/19 00:27:31;;;;;;;0.35;0.35;;;-0.20;99.90;;;;;;5078629;28;20044;-62
2024/01/19 00:29:56;;;;;;;1.45;0.40;;;0.00;99.90;;;;;;5079119;28;20040;-63
2024/01/19 00:32:22;;;;;;;1.20;0.47;;;0.80;99.90;;;;;;5061346;28;20032;-62
2024/01/19 00:34:48;;;;;;;1.65;0.63;;;-0.30;99.90;;;;;;5078845;28;20123;-62
2024/01/19 00:37:14;;;;;;;2.92;0.50;;;-0.30;99.90;;;;;;5060743;28;20045;-62
2024/01/19 00:39:40;;;;;;;5.18;0.60;;;0.60;99.90;;;;;;5060564;28;20054;-62
2024/01/19 00:42:06;;;;;;;3.90;0.57;;;0.50;99.90;;;;;;5078775;28;20064;-63
2024/01/19 00:44:32;;;;;;;3.40;0.70;;;0.70;99.90;;;;;;5078445;28;20105;-62
2024/01/19 00:46:58;;;;;;;9.05;0.93;;;0.40;99.90;;;;;;5078884;28;20040;-62
2024/01/19 00:49:24;;;;;;;5.60;0.90;;;-0.30;99.90;;;;;;5078817;28;20055;-62
2024/01/19 00:51:50;;;;;;;3.45;0.80;;;0.30;99.90;;;;;;5077596;28;20048;-62
2024/01/19 00:54:16;;;;;;;3.47;0.88;;;0.00;99.90;;;;;;5078690;28;20044;-62
2024/01/19 00:56:41;;;;;;;2.08;0.60;;;0.40;99.90;;;;;;5078412;28;20068;-62
2024/01/19 00:59:08;;;;;;;1.23;0.43;;;-0.30;99.90;;;;;;5078609;28;20093;-62
2024/01/19 01:01:34;;;;;;;1.60;0.50;;;0.60;99.90;;;;;;5060565;28;20040;-62
2024/01/19 01:04:01;;;;;;;2.67;0.77;;;-0.40;99.90;;;;;;5078570;28;20044;-62
2024/01/19 01:06:27;;;;;;;1.77;0.50;;;0.00;99.90;;;;;;5078521;28;20059;-62
2024/01/19 01:08:53;;;;;;;3.60;0.50;;;0.50;99.90;;;;;;5078845;28;20507;-62
2024/01/19 01:11:20;;;;;;;2.05;0.70;;;-0.50;99.90;;;;;;5078817;28;20068;-63
2024/01/19 01:13:46;;;;;;;2.97;0.60;;;0.50;99.90;;;;;;5078382;28;20059;-63
2024/01/19 01:16:12;;;;;;;3.45;0.85;;;0.30;99.90;;;;;;5056489;28;20061;-62
2024/01/19 01:18:38;;;;;;;4.45;0.75;;;-0.60;99.90;;;;;;5058419;28;20059;-62
2024/01/19 01:21:04;;;;;;;4.10;0.60;;;0.50;99.90;;;;;;5058267;28;20038;-63
2024/01/19 01:23:31;;;;;;;3.97;0.68;;;0.30;99.90;;;;;;5058646;28;20083;-62
2024/01/19 01:25:56;;;;;;;3.13;0.60;;;0.30;99.90;;;;;;5058528;28;20080;-62
2024/01/19 01:28:22;;;;;;;2.00;0.50;;;-0.70;99.90;;;;;;5058471;28;20056;-62
2024/01/19 01:30:48;;;;;;;0.95;0.63;;;-0.80;99.90;;;;;;5058257;28;20048;-63
2024/01/19 01:33:14;;;;;;;3.92;0.85;;;-0.90;99.90;;;;;;5058207;28;20044;-63
2024/01/19 01:35:39;;;;;;;3.65;0.60;;;0.30;99.90;;;;;;5057776;28;20083;-62
2024/01/19 01:38:05;;;;;;;4.10;0.70;;;0.30;99.90;;;;;;5059985;28;20092;-61
2024/01/19 01:40:31;;;;;;;2.53;0.70;;;-0.40;99.90;;;;;;5062583;28;20097;-63
2024/01/19 01:43:01;;;;;;;2.35;0.50;;;-0.50;99.90;;;;;;5062360;28;20045;-63
2024/01/19 01:45:27;;;;;;;3.90;0.77;;;-0.50;99.90;;;;;;5062370;28;20412;-62
2024/01/19 01:47:53;;;;;;;3.67;0.60;;;-0.80;99.90;;;;;;5060596;28;20060;-63
2024/01/19 01:50:19;;;;;;;4.68;0.95;;;-0.70;99.90;;;;;;5061952;28;20061;-62
2024/01/19 01:52:45;;;;;;;3.08;0.73;;;0.40;99.90;;;;;;5060182;28;20041;-62
2024/01/19 01:55:12;;;;;;;6.82;1.70;;;-0.70;99.90;;;;;;5061909;28;20082;-62
2024/01/19 01:57:39;;;;;;;4.75;0.80;;;0.20;99.90;;;;;;5062148;28;20060;-61
2024/01/19 02:00:08;;;;;;;3.63;0.73;;;-0.50;99.90;;;;;;5061882;28;20061;-61
2024/01/19 02:02:35;;;;;;;8.00;1.05;;;0.40;99.90;;;;;;5060714;28;20155;-61
2024/01/19 02:05:01;;;;;;;2.72;0.77;;;-0.60;99.90;;;;;;5061718;28;20123;-61
2024/01/19 02:07:26;;;;;;;6.15;0.73;;;-0.80;99.90;;;;;;5061514;28;20045;-61
2024/01/19 02:09:52;;;;;;;3.70;0.95;;;0.40;99.90;;;;;;5061751;28;20051;-61
2024/01/19 02:12:17;;;;;;;7.00;1.10;;;-0.60;99.90;;;;;;5061513;28;20044;-61
2024/01/19 02:14:43;;;;;;;5.63;0.98;;;-0.60;99.90;;;;;;5061836;28;20071;-61
2024/01/19 02:17:09;;;;;;;5.63;0.70;;;-1.00;99.90;;;;;;5079237;28;20137;-61
2024/01/19 02:19:35;;;;;;;3.03;0.80;;;-0.50;99.90;;;;;;5081647;28;20040;-64
2024/01/19 02:22:02;;;;;;;4.72;0.85;;;-0.90;99.90;;;;;;5063894;28;20092;-61
2024/01/19 02:24:29;;;;;;;3.65;0.82;;;-0.90;99.90;;;;;;5081491;28;20071;-61
2024/01/19 02:26:55;;;;;;;3.97;1.10;;;-0.60;99.90;;;;;;5063199;28;20075;-61
2024/01/19 02:29:21;;;;;;;6.78;1.15;;;0.60;99.90;;;;;;5063183;28;20083;-61
2024/01/19 02:31:47;;;;;;;4.65;0.90;;;-0.50;99.90;;;;;;5080975;28;20412;-61
2024/01/19 02:34:12;;;;;;;7.88;0.80;;;0.60;99.90;;;;;;5081585;28;20132;-61
2024/01/19 02:36:38;;;;;;;5.13;0.70;;;-0.90;99.90;;;;;;5081096;28;20047;-62
2024/01/19 02:39:05;;;;;;;6.85;1.38;;;-0.50;99.90;;;;;;5063310;28;20046;-62
2024/01/19 02:41:31;;;;;;;3.22;0.70;;;0.40;99.90;;;;;;5081244;28;20423;-62
2024/01/19 02:43:57;;;;;;;8.43;0.98;;;-1.30;99.90;;;;;;5081081;28;20049;-61
2024/01/19 02:46:23;;;;;;;5.97;1.20;;;-1.50;99.90;;;;;;5080584;28;20083;-62
2024/01/19 02:48:49;;;;;;;4.25;1.30;;;0.10;99.90;;;;;;5079902;28;20033;-62
2024/01/19 02:51:14;;;;;;;6.10;1.40;;;-1.30;99.90;;;;;;5080516;28;20048;-61
2024/01/19 02:53:40;;;;;;;8.70;1.23;;;-1.50;99.90;;;;;;5081087;28;20132;-61
2024/01/19 02:56:06;;;;;;;4.50;1.02;;;0.20;99.90;;;;;;5080783;28;20046;-59
2024/01/19 02:58:32;;;;;;;3.72;1.00;;;-1.60;99.90;;;;;;5080894;28;20040;-61
2024/01/19 03:00:59;;;;;;;7.82;1.05;;;0.00;99.90;;;;;;5080535;28;20059;-62
2024/01/19 03:03:25;;;;;;;3.15;1.17;;;-1.60;99.90;;;;;;5080850;28;20052;-62
2024/01/19 03:05:50;;;;;;;5.18;1.20;;;-0.30;99.90;;;;;;5080469;28;20036;-61
2024/01/19 03:08:16;;;;;;;8.98;1.25;;;0.10;99.90;;;;;;5080664;28;20062;-61
2024/01/19 03:10:42;;;;;;;6.43;1.23;;;-0.70;99.90;;;;;;5080933;28;20045;-61
2024/01/19 03:13:07;;;;;;;5.35;1.35;;;-1.10;99.90;;;;;;5080842;28;20440;-61
2024/01/19 03:15:33;;;;;;;6.57;1.95;;;-1.10;99.90;;;;;;5080074;28;20057;-62
2024/01/19 03:18:00;;;;;;;5.15;0.85;;;-1.50;99.90;;;;;;5080556;28;20040;-62
2024/01/19 03:20:26;;;;;;;6.22;1.40;;;-1.70;99.90;;;;;;5080204;28;20036;-62
2024/01/19 03:22:51;;;;;;;6.35;0.95;;;-1.50;99.90;;;;;;5062185;28;20051;-61
2024/01/19 03:25:17;;;;;;;7.60;0.90;;;-0.90;99.90;;;;;;5062578;28;20051;-62
2024/01/19 03:27:42;;;;;;;6.55;1.30;;;-1.60;99.90;;;;;;5080459;28;20040;-62
2024/01/19 03:30:08;;;;;;;8.98;1.58;;;-1.30;99.90;;;;;;5080009;28;20037;-62
2024/01/19 03:32:34;;;;;;;11.05;0.98;;;-0.20;99.90;;;;;;5080200;28;20044;-61
2024/01/19 03:35:00;;;;;;;4.95;1.00;;;0.50;99.90;;;;;;5079951;28;20123;-61
2024/01/19 03:37:27;;;;;;;10.50;1.00;;;0.30;99.90;;;;;;5080026;28;20063;-61
2024/01/19 03:39:53;;;;;;;3.63;1.08;;;-0.80;99.90;;;;;;5079960;28;20044;-62
2024/01/19 03:42:19;;;;;;;7.88;0.98;;;-1.10;99.90;;;;;;5080107;28;20094;-62
2024/01/19 03:44:44;;;;;;;8.23;1.10;;;-1.10;99.90;;;;;;5080151;28;20120;-61
2024/01/19 03:47:10;;;;;;;7.57;1.05;;;-1.10;99.90;;;;;;5061885;28;20052;-63
2024/01/19 03:49:36;;;;;;;7.40;0.90;;;-0.20;99.90;;;;;;5079919;28;20079;-62
2024/01/19 03:52:06;;;;;;;9.27;1.33;;;-1.00;99.90;;;;;;5079873;28;20096;-62
2024/01/19 03:54:32;;;;;;;8.90;1.20;;;0.10;99.90;;;;;;5061430;28;20522;-62
2024/01/19 03:57:00;;;;;;;5.90;0.98;;;0.50;99.90;;;;;;5079456;28;20045;-63
2024/01/19 03:59:26;;;;;;;6.85;1.23;;;-1.10;99.90;;;;;;5079563;28;20070;-62
2024/01/19 04:01:53;;;;;;;2.58;0.57;;;0.40;99.90;;;;;;5078730;28;20060;-62
2024/01/19 04:04:19;;;;;;;8.82;1.20;;;-0.20;99.90;;;;;;5079463;28;20071;-62
2024/01/19 04:06:45;;;;;;;5.28;1.20;;;-0.30;99.90;;;;;;5061266;28;20056;-63
2024/01/19 04:09:11;;;;;;;4.63;0.82;;;-0.20;99.90;;;;;;5079456;28;20092;-63
2024/01/19 04:11:37;;;;;;;10.93;1.13;;;-1.00;99.90;;;;;;5079243;28;20052;-62
2024/01/19 04:14:03;;;;;;;8.80;1.05;;;0.30;99.90;;;;;;5079124;28;20049;-62
2024/01/19 04:16:29;;;;;;;6.97;1.23;;;-0.90;99.90;;;;;;5079260;28;20053;-63
2024/01/19 04:18:55;;;;;;;11.32;1.10;;;0.30;99.90;;;;;;5079234;28;20124;-63
2024/01/19 04:21:20;;;;;;;8.85;1.20;;;0.20;99.90;;;;;;5061368;28;20041;-64
2024/01/19 04:23:46;;;;;;;6.78;1.88;;;-0.90;99.90;;;;;;5061231;28;20380;-64
2024/01/19 04:26:12;;;;;;;10.10;1.70;;;-0.10;99.90;;;;;;5078962;28;20048;-64
2024/01/19 04:28:39;;;;;;;10.77;1.58;;;-0.30;99.90;;;;;;5078931;28;20041;-64
2024/01/19 04:31:05;;;;;;;9.35;1.30;;;-0.40;99.90;;;;;;5078782;28;20051;-64
2024/01/19 04:33:31;;;;;;;4.28;0.95;;;0.00;99.90;;;;;;5078803;28;20047;-62
2024/01/19 04:35:57;;;;;;;10.20;1.13;;;0.00;99.90;;;;;;5078576;28;20040;-62
2024/01/19 04:38:22;;;;;;;11.10;1.42;;;-0.80;99.90;;;;;;5061135;28;20045;-62
2024/01/19 04:40:48;;;;;;;6.03;1.55;;;0.10;99.90;;;;;;5078980;28;20122;-62
2024/01/19 04:43:14;;;;;;;5.95;1.13;;;-0.10;99.90;;;;;;5060568;28;20077;-62
2024/01/19 04:45:39;;;;;;;9.77;1.35;;;-1.00;99.90;;;;;;5044207;28;20048;-62
2024/01/19 04:48:05;;;;;;;7.00;1.25;;;-0.40;99.90;;;;;;5078586;28;20385;-62
2024/01/19 04:50:31;;;;;;;4.28;0.80;;;-0.20;99.90;;;;;;5078358;28;20048;-63
2024/01/19 04:52:56;;;;;;;4.05;1.42;;;-0.20;99.90;;;;;;5077083;28;20064;-63
2024/01/19 04:55:22;;;;;;;10.05;1.27;;;-1.20;99.90;;;;;;5078488;28;20119;-62
2024/01/19 04:57:48;;;;;;;8.45;1.33;;;-1.00;99.90;;;;;;5078567;28;20256;-62
2024/01/19 05:00:15;;;;;;;9.80;1.00;;;-0.30;99.90;;;;;;5078717;28;20470;-63
2024/01/19 05:02:40;;;;;;;6.03;1.20;;;-1.20;99.90;;;;;;5078795;28;20505;-62
2024/01/19 05:05:06;;;;;;;8.48;1.50;;;-1.20;99.90;;;;;;5078106;28;20060;-63
2024/01/19 05:07:32;;;;;;;8.52;0.95;;;-0.30;99.90;;;;;;5078614;28;20056;-63
2024/01/19 05:09:58;;;;;;;8.23;1.10;;;-0.20;99.90;;;;;;5078208;28;20048;-62
2024/01/19 05:12:24;;;;;;;5.57;1.13;;;-0.80;99.90;;;;;;5076065;28;20059;-62
2024/01/19 05:14:49;;;;;;;7.60;1.05;;;-1.20;99.90;;;;;;5078613;28;20064;-62
2024/01/19 05:17:15;;;;;;;6.30;1.85;;;-1.10;99.90;;;;;;5078378;28;20056;-61
2024/01/19 05:19:41;;;;;;;9.57;1.83;;;-0.60;99.90;;;;;;5078824;28;20108;-63
2024/01/19 05:22:07;;;;;;;3.85;0.77;;;0.30;99.90;;;;;;5077985;28;20091;-62
2024/01/19 05:24:33;;;;;;;8.73;1.25;;;0.40;99.90;;;;;;5078200;28;20501;-62
2024/01/19 05:26:59;;;;;;;3.67;0.93;;;0.40;99.90;;;;;;5078128;28;20047;-62
2024/01/19 05:29:25;;;;;;;4.90;1.00;;;0.50;99.90;;;;;;5077834;28;20547;-62
2024/01/19 05:31:51;;;;;;;4.03;0.80;;;-0.10;99.90;;;;;;5078404;28;20046;-62
2024/01/19 05:34:16;;;;;;;9.70;1.08;;;0.30;99.90;;;;;;5078459;28;20041;-62
2024/01/19 05:36:42;;;;;;;6.32;1.08;;;-0.10;99.90;;;;;;5059874;28;20048;-62
2024/01/19 05:39:08;;;;;;;6.40;2.33;;;-0.60;99.90;;;;;;5078157;28;20048;-62
2024/01/19 05:41:34;;;;;;;4.32;0.80;;;-0.50;99.90;;;;;;5059626;28;20123;-62
2024/01/19 05:44:00;;;;;;;9.90;1.13;;;0.10;99.90;;;;;;5077894;28;20033;-63
2024/01/19 05:46:26;;;;;;;9.90;1.20;;;0.00;99.90;;;;;;5077983;28;20036;-62
2024/01/19 05:48:51;;;;;;;6.53;0.90;;;-0.10;99.90;;;;;;5077378;28;20040;-63
2024/01/19 05:51:18;;;;;;;9.38;1.00;;;-0.20;99.90;;;;;;5078360;28;20112;-62
2024/01/19 05:53:44;;;;;;;3.95;0.80;;;-1.10;99.90;;;;;;5077919;28;20044;-62
2024/01/19 05:56:10;;;;;;;9.68;0.93;;;-0.10;99.90;;;;;;5077935;28;20040;-63
2024/01/19 05:58:36;;;;;;;4.57;0.95;;;-1.10;99.90;;;;;;5078022;28;20046;-62
2024/01/19 06:01:02;;;;;;;6.10;1.02;;;0.00;99.90;;;;;;5077733;28;20609;-62
2024/01/19 06:03:35;;;;;;;7.22;1.65;;;-0.10;99.90;;;;;;5077898;28;20075;-63
2024/01/19 06:06:01;;;;;;;6.68;1.25;;;0.00;99.90;;;;;;5059697;28;20394;-62
2024/01/19 06:08:28;;;;;;;4.57;1.10;;;-0.80;99.90;;;;;;5077917;28;20048;-61
2024/01/19 06:10:54;;;;;;;2.63;0.70;;;-1.00;99.90;;;;;;5077813;28;20045;-61
2024/01/19 06:13:20;;;;;;;4.72;1.20;;;-1.10;99.90;;;;;;5060056;28;20072;-62
2024/01/19 06:15:46;;;;;;;3.83;1.10;;;-0.90;99.90;;;;;;5077386;28;20068;-61
2024/01/19 06:18:11;;;;;;;8.07;1.10;;;-1.30;99.90;;;;;;5077848;28;20074;-61
2024/01/19 06:20:43;;;;;;;5.03;0.90;;;-1.50;99.90;;;;;;5077890;28;20036;-62
2024/01/19 06:23:12;;;;;;;3.65;0.88;;;-0.30;99.90;;;;;;5077745;28;20119;-61
2024/01/19 06:25:39;;;;;;;3.53;0.70;;;-0.30;99.90;;;;;;5081709;28;20048;-61
2024/01/19 06:28:06;;;;;;;4.55;1.20;;;-1.70;99.90;;;;;;5076164;28;20104;-61
2024/01/19 06:30:32;;;;;;;2.97;0.80;;;-1.40;99.90;;;;;;5059395;28;20040;-61
2024/01/19 06:32:58;;;;;;;2.95;0.52;;;-1.80;99.90;;;;;;5076965;28;20049;-62
2024/01/19 06:35:24;;;;;;;5.95;1.10;;;0.00;99.90;;;;;;5076816;28;20057;-60
2024/01/19 06:37:50;;;;;;;6.43;0.95;;;-1.40;99.90;;;;;;5076859;28;20074;-61
2024/01/19 06:40:16;;;;;;;5.10;0.68;;;-1.30;99.90;;;;;;5077244;28;20074;-62
2024/01/19 06:42:44;;;;;;;3.47;0.70;;;0.10;99.90;;;;;;5077561;28;20036;-62
2024/01/19 06:45:10;;;;;;;4.03;1.10;;;-1.20;99.90;;;;;;5076137;28;20040;-61
2024/01/19 06:47:36;;;;;;;7.38;1.25;;;-1.50;99.90;;;;;;5077379;28;20052;-62
2024/01/19 06:50:03;;;;;;;7.35;2.60;;;-1.10;99.90;;;;;;5076452;28;20037;-62
2024/01/19 06:52:29;;;;;;;4.50;1.88;;;0.00;99.90;;;;;;5077218;28;20062;-62
2024/01/19 06:54:55;;;;;;;4.30;1.52;;;-1.90;99.90;;;;;;5076797;28;20072;-62
2024/01/19 06:57:20;;;;;;;4.90;1.27;;;-1.90;99.90;;;;;;5076310;28;20060;-61
2024/01/19 06:59:46;;;;;;;5.55;1.33;;;-1.30;99.90;;;;;;5058905;28;20123;-63
2024/01/19 07:02:12;;;;;;;4.00;0.85;;;-1.90;99.90;;;;;;5076617;28;20052;-61
2024/01/19 07:04:37;;;;;;;8.77;1.00;;;-1.70;99.90;;;;;;5076527;28;20047;-63
2024/01/19 07:07:03;;;;;;;5.35;1.00;;;0.00;99.90;;;;;;5057474;28;20098;-62
2024/01/19 07:09:29;;;;;;;4.47;0.95;;;-0.80;99.90;;;;;;5075939;28;20052;-62
2024/01/19 07:11:55;;;;;;;7.03;1.33;;;-0.60;99.90;;;;;;5075485;28;20476;-62
2024/01/19 07:14:21;;;;;;;11.50;1.50;;;-1.20;99.90;;;;;;5074009;28;20044;-62
2024/01/19 07:16:47;;;;;;;10.55;1.42;;;-1.80;99.90;;;;;;5075948;28;20067;-64
2024/01/19 07:19:13;;;;;;;10.85;1.58;;;-0.10;99.90;;;;;;5076356;28;20045;-64
2024/01/19 07:21:40;;;;;;;10.43;1.55;;;0.10;99.90;;;;;;5076763;28;20051;-64
2024/01/19 07:24:11;;;;;;;7.80;1.27;;;0.20;99.90;;;;;;5076454;28;20040;-64
2024/01/19 07:26:38;;;;;;;8.45;1.30;;;0.10;99.90;;;;;;5076054;28;20044;-64
2024/01/19 07:29:06;;;;;;;8.30;0.93;;;-1.60;99.90;;;;;;5058034;28;20058;-65
2024/01/19 07:31:36;;;;;;;12.80;1.95;;;-1.60;99.90;;;;;;5076214;28;20045;-64
2024/01/19 07:34:02;;;;;;;10.90;1.85;;;-1.50;99.90;;;;;;5074689;28;20099;-64
2024/01/19 07:36:28;;;;;;;14.55;1.60;;;-1.70;99.90;;;;;;5073959;28;20048;-64
2024/01/19 07:38:54;;;;;;;10.13;1.48;;;-0.30;99.90;;;;;;5075264;28;20124;-64
2024/01/19 07:41:20;;;;;;;11.23;1.33;;;-1.60;99.90;;;;;;5073337;28;20044;-65
2024/01/19 07:43:46;;;;;;;9.18;1.42;;;-0.50;99.90;;;;;;5056744;28;20049;-65
2024/01/19 07:46:12;;;;;;;11.20;1.40;;;-1.20;99.90;;;;;;5074218;28;20043;-65
2024/01/19 07:48:38;;;;;;;7.55;1.10;;;0.00;99.90;;;;;;5056998;28;20044;-65
2024/01/19 07:51:04;;;;;;;9.73;1.38;;;-1.50;99.90;;;;;;5074348;28;20045;-64
2024/01/19 07:53:29;;;;;;;6.95;1.45;;;0.20;99.90;;;;;;5074600;28;20446;-64
2024/01/19 07:55:55;;;;;;;8.25;1.60;;;-1.40;99.90;;;;;;5074896;28;20040;-63
2024/01/19 07:58:21;;;;;;;7.00;1.23;;;-1.30;99.90;;;;;;5074196;28;20043;-63
2024/01/19 08:00:47;;;;;;;6.60;1.15;;;0.10;99.90;;;;;;5056144;28;20045;-63
2024/01/19 08:03:14;;;;;;;11.35;1.75;;;-0.90;99.90;;;;;;5074353;28;20048;-63
2024/01/19 08:05:40;;;;;;;13.68;1.80;;;-0.10;99.90;;;;;;5073649;28;20049;-63
2024/01/19 08:08:05;;;;;;;15.60;1.50;;;-1.30;99.90;;;;;;5073867;28;20046;-63
2024/01/19 08:10:34;;;;;;;8.93;1.83;;;-0.80;99.90;;;;;;5074316;28;20044;-63
2024/01/19 08:13:00;;;;;;;9.10;1.60;;;0.00;99.90;;;;;;5074227;28;20526;-63
2024/01/19 08:15:26;;;;;;;9.23;2.20;;;-1.40;99.90;;;;;;5055781;28;20044;-63
2024/01/19 08:17:51;;;;;;;11.10;1.50;;;0.00;99.90;;;;;;5074225;28;20071;-63
2024/01/19 08:20:17;;;;;;;8.75;1.55;;;-1.30;99.90;;;;;;5070018;28;20029;-62
2024/01/19 08:22:43;;;;;;;11.60;1.70;;;-1.20;99.90;;;;;;5074654;28;20053;-63
2024/01/19 08:25:09;;;;;;;8.35;1.40;;;-1.20;99.90;;;;;;5074787;28;20092;-65
2024/01/19 08:27:39;;;;;;;9.20;1.38;;;-0.20;99.90;;;;;;5057456;28;20040;-64
2024/01/19 08:30:05;;;;;;;9.43;1.60;;;-0.30;99.90;;;;;;5074635;28;20056;-61
2024/01/19 08:32:31;;;;;;;9.75;1.65;;;-0.30;99.90;;;;;;5069235;28;20100;-64
2024/01/19 08:34:57;;;;;;;9.52;2.00;;;-0.10;99.90;;;;;;5073192;28;20072;-64
2024/01/19 08:37:22;;;;;;;10.75;1.80;;;-0.70;99.90;;;;;;5074157;28;20084;-64
2024/01/19 08:39:49;;;;;;;5.95;1.30;;;-1.20;99.90;;;;;;5056530;28;20071;-64
2024/01/19 08:42:14;;;;;;;11.48;2.40;;;-1.20;99.90;;;;;;5074967;28;20036;-64
2024/01/19 08:44:44;;;;;;;11.65;1.30;;;-1.00;99.90;;;;;;5074710;28;20527;-64
2024/01/19 08:47:10;;;;;;;6.65;1.33;;;0.00;99.90;;;;;;5075103;28;20055;-62
2024/01/19 08:49:36;;;;;;;6.70;1.70;;;-1.10;99.90;;;;;;5074716;28;20097;-63
2024/01/19 08:52:02;;;;;;;11.95;1.30;;;-0.20;99.90;;;;;;5073959;28;20044;-64
2024/01/19 08:54:28;;;;;;;5.70;1.58;;;-0.20;99.90;;;;;;5074557;28;20100;-63
2024/01/19 08:56:55;;;;;;;12.20;1.40;;;-0.90;99.90;;;;;;5073937;28;20105;-64
2024/01/19 08:59:22;;;;;;;5.93;1.30;;;-0.90;99.90;;;;;;5056156;28;20055;-64
2024/01/19 09:01:53;;;;;;;6.35;1.20;;;-0.70;99.90;;;;;;5074962;28;20044;-64
2024/01/19 09:04:19;;;;;;;10.60;2.00;;;-0.80;99.90;;;;;;5056327;28;20119;-62
2024/01/19 09:06:44;;;;;;;7.90;1.25;;;-0.60;99.90;;;;;;5056499;28;20091;-61
2024/01/19 09:09:10;;;;;;;13.95;1.67;;;-0.10;99.90;;;;;;5072961;28;20060;-61
2024/01/19 09:11:36;;;;;;;18.13;3.33;;;-0.20;99.90;;;;;;5073136;28;20048;-62
2024/01/19 09:14:02;;;;;;;7.93;1.65;;;-0.40;99.90;;;;;;5056253;28;20072;-62
2024/01/19 09:16:28;;;;;;;10.18;2.38;;;-0.40;99.90;;;;;;5074054;28;20613;-61
2024/01/19 09:18:53;;;;;;;12.13;1.38;;;0.10;99.90;;;;;;5076509;28;20054;-62
2024/01/19 09:21:19;;;;;;;8.18;1.52;;;0.00;99.90;;;;;;5078116;28;20530;-61
2024/01/19 09:23:45;;;;;;;9.18;1.65;;;0.60;99.90;;;;;;5060312;28;20060;-62
2024/01/19 09:26:37;;;;;;;7.18;1.60;;;-0.10;99.90;;;;;;5078409;28;20056;-61
2024/01/19 09:29:03;;;;;;;7.68;1.55;;;-0.10;99.90;;;;;;5073539;28;20052;-62
2024/01/19 09:31:29;;;;;;;13.43;2.00;;;0.10;99.90;;;;;;5078235;28;20102;-62
2024/01/19 09:33:55;;;;;;;9.85;2.05;;;0.70;99.90;;;;;;5078454;28;20925;-61
2024/01/19 09:36:20;;;;;;;10.85;2.30;;;0.70;99.90;;;;;;5078606;28;20479;-60
2024/01/19 09:38:46;;;;;;;10.27;1.90;;;0.90;99.90;;;;;;5078226;28;20417;-61
2024/01/19 09:41:30;;;;;;;9.82;1.80;;;0.20;99.90;;;;;;5078523;28;20068;-62
2024/01/19 09:43:57;;;;;;;8.60;1.52;;;0.90;99.90;;;;;;5077966;28;20084;-61
2024/01/19 09:46:29;;;;;;;9.82;1.70;;;0.40;99.90;;;;;;5078168;28;20423;-61
2024/01/19 09:49:08;;;;;;;11.23;1.83;;;1.00;99.90;;;;;;5078030;28;20044;-60
2024/01/19 09:51:56;;;;;;;7.70;1.95;;;0.50;99.90;;;;;;5078407;28;20415;-61
2024/01/19 09:54:32;;;;;;;10.30;1.92;;;0.90;99.90;;;;;;5059342;28;20399;-61
2024/01/19 09:57:00;;;;;;;14.80;1.38;;;0.70;99.90;;;;;;5077296;28;20139;-61
2024/01/19 09:59:30;;;;;;;12.60;1.77;;;1.30;99.90;;;;;;5079025;28;20611;-61
2024/01/19 10:01:56;;;;;;;6.65;1.27;;;0.90;99.90;;;;;;5081547;28;20070;-61
2024/01/19 10:04:23;;;;;;;13.50;1.88;;;1.40;99.90;;;;;;5081640;28;20100;-60
2024/01/19 10:06:50;;;;;;;10.82;2.13;;;0.90;99.90;;;;;;5081917;28;20040;-61
2024/01/19 10:09:18;;;;;;;12.15;1.95;;;1.50;99.90;;;;;;5081126;28;20045;-61
2024/01/19 10:11:49;;;;;;;9.88;1.42;;;1.60;99.90;;;;;;5081311;28;20041;-61
2024/01/19 10:14:15;;;;;;;11.15;1.88;;;1.10;99.90;;;;;;5081079;28;20081;-61
2024/01/19 10:16:42;;;;;;;6.60;1.45;;;1.10;99.90;;;;;;5081163;28;20470;-61
2024/01/19 10:19:09;;;;;;;10.73;1.38;;;1.70;99.90;;;;;;5081627;28;20052;-61
2024/01/19 10:21:35;;;;;;;7.57;1.55;;;1.10;99.90;;;;;;5081123;28;20082;-61
2024/01/19 10:24:15;;;;;;;10.52;1.42;;;1.70;99.90;;;;;;5079934;28;20044;-61
2024/01/19 10:26:42;;;;;;;10.27;1.75;;;1.30;99.90;;;;;;5062760;28;20093;-61
2024/01/19 10:29:15;;;;;;;9.07;1.85;;;1.40;99.90;;;;;;5080815;28;20604;-61
2024/01/19 10:31:44;;;;;;;13.60;1.67;;;2.00;99.90;;;;;;5063400;28;20078;-61
2024/01/19 10:34:17;;;;;;;9.52;1.67;;;1.80;99.90;;;;;;5081362;28;20040;-60
2024/01/19 10:36:44;;;;;;;13.30;1.85;;;1.50;99.90;;;;;;5080783;28;20048;-61
2024/01/19 10:39:18;;;;;;;14.18;2.25;;;1.90;99.90;;;;;;5080717;28;20610;-61
2024/01/19 10:41:44;;;;;;;9.57;2.08;;;2.10;99.90;;;;;;5081051;28;20045;-61
2024/01/19 10:44:16;;;;;;;8.55;1.30;;;1.70;99.90;;;;;;5080561;28;20124;-65
2024/01/19 10:46:43;;;;;;;9.20;1.25;;;1.90;99.90;;;;;;5081182;28;20070;-61
2024/01/19 10:49:10;;;;;;;8.30;1.33;;;1.90;99.90;;;;;;5081013;28;20102;-61
2024/01/19 10:51:44;;;;;;;11.25;1.52;;;1.80;99.90;;;;;;5080719;28;20060;-61
2024/01/19 10:54:23;;;;;;;14.30;3.17;;;2.40;99.90;;;;;;5080749;28;20044;-61
2024/01/19 10:57:03;;;;;;;11.25;1.70;;;2.00;99.90;;;;;;5080156;28;20174;-61
2024/01/19 10:59:29;;;;;;;19.00;2.05;;;2.60;99.90;;;;;;5080529;28;20055;-61
2024/01/19 11:02:03;;;;;;;9.30;1.27;;;2.60;99.90;;;;;;5079516;28;20041;-62
2024/01/19 11:04:29;;;;;;;14.88;1.67;;;2.70;99.90;;;;;;5062574;28;20045;-61
2024/01/19 11:06:55;;;;;;;8.80;1.50;;;2.60;99.90;;;;;;5079936;28;20058;-61
2024/01/19 11:09:21;;;;;;;10.60;2.25;;;2.50;99.90;;;;;;5080001;28;20117;-62
2024/01/19 11:12:04;;;;;;;14.15;1.92;;;2.80;99.90;;;;;;5079295;28;20445;-61
2024/01/19 11:14:32;;;;;;;4.78;1.02;;;2.80;99.90;;;;;;5080762;28;20044;-62
2024/01/19 11:16:57;;;;;;;8.02;1.23;;;2.50;99.90;;;;;;5079598;28;20176;-61
2024/01/19 11:19:24;;;;;;;9.85;1.08;;;2.80;99.90;;;;;;5080143;28;20056;-60
2024/01/19 11:21:50;;;;;;;11.30;1.90;;;2.90;99.90;;;;;;5079814;28;20063;-61
2024/01/19 11:24:18;;;;;;;13.73;1.65;;;2.70;99.90;;;;;;5078444;28;20041;-61
2024/01/19 11:27:36;;;;;;;6.90;1.70;;;3.10;99.90;;;;;;5079362;28;20071;-62
2024/01/19 11:30:21;;;;;;;6.88;1.10;;;2.90;99.90;;;;;;5051355;28;20055;-61
2024/01/19 11:32:47;;;;;;;10.35;1.20;;;3.20;99.90;;;;;;5067026;28;20039;-62
2024/01/19 11:35:40;;;;;;;12.73;2.38;;;2.90;99.90;;;;;;5069407;28;20516;-62
2024/01/19 11:38:05;;;;;;;10.02;1.35;;;3.20;99.90;;;;;;5079465;28;20104;-62
2024/01/19 11:40:32;;;;;;;5.20;1.10;;;2.90;99.90;;;;;;5079341;28;20048;-63
2024/01/19 11:42:58;;;;;;;11.98;1.50;;;2.90;99.90;;;;;;5079934;28;20044;-61
2024/01/19 11:45:27;;;;;;;6.18;1.15;;;3.40;99.90;;;;;;5079912;28;20078;-61
2024/01/19 11:47:52;;;;;;;6.65;1.23;;;3.00;99.90;;;;;;5079537;28;20083;-62
2024/01/19 11:50:45;;;;;;;10.18;1.67;;;3.10;99.90;;;;;;5079512;28;20545;-62
2024/01/19 11:53:11;;;;;;;11.45;1.95;;;3.00;99.90;;;;;;5079485;28;20033;-62
2024/01/19 11:55:39;;;;;;;7.00;1.10;;;3.20;99.90;;;;;;5079185;28;20093;-62
2024/01/19 11:58:26;;;;;;;14.20;2.13;;;3.10;99.90;;;;;;5079414;28;20068;-61
2024/01/19 12:01:12;;;;;;;11.65;1.30;;;3.50;99.90;;;;;;5079147;28;20080;-62
2024/01/19 12:03:38;;;;;;;12.52;1.90;;;3.30;99.90;;;;;;5079192;28;20045;-62
2024/01/19 12:06:05;;;;;;;11.48;1.50;;;3.60;99.90;;;;;;5078937;28;20043;-61
2024/01/19 12:08:32;;;;;;;9.02;1.30;;;3.30;99.90;;;;;;5078808;28;20096;-62
2024/01/19 12:11:24;;;;;;;8.48;1.02;;;3.50;99.90;;;;;;5079048;28;20055;-62
2024/01/19 12:13:49;;;;;;;8.65;1.60;;;3.20;99.90;;;;;;5072812;28;20538;-64
2024/01/19 12:16:19;;;;;;;12.60;1.48;;;3.60;99.90;;;;;;5078304;28;20053;-61
2024/01/19 12:18:45;;;;;;;9.38;1.48;;;3.30;99.90;;;;;;5078684;28;20045;-62
2024/01/19 12:21:11;;;;;;;7.40;1.08;;;3.70;99.90;;;;;;5078887;28;20036;-61
2024/01/19 12:23:39;;;;;;;9.68;2.00;;;3.20;99.90;;;;;;5078899;28;20048;-61
2024/01/19 12:26:05;;;;;;;10.10;1.20;;;3.60;99.90;;;;;;5060667;28;20086;-61
2024/01/19 12:28:33;;;;;;;7.55;1.23;;;3.50;99.90;;;;;;5026988;28;20040;-61
2024/01/19 12:30:59;;;;;;;10.88;1.60;;;3.80;99.90;;;;;;5078474;28;20032;-62
2024/01/19 12:33:28;;;;;;;5.78;1.90;;;3.50;99.90;;;;;;5078591;28;20049;-62
2024/01/19 12:36:10;;;;;;;8.20;1.10;;;3.70;99.90;;;;;;5059752;28;20434;-61
2024/01/19 12:38:36;;;;;;;8.93;1.52;;;3.50;99.90;;;;;;5077395;28;20048;-62
2024/01/19 12:41:03;;;;;;;9.70;1.40;;;3.80;99.90;;;;;;5078399;28;20359;-61
2024/01/19 12:43:33;;;;;;;5.70;1.20;;;3.50;99.90;;;;;;5062750;28;20040;-63
2024/01/19 12:46:06;;;;;;;10.82;1.58;;;3.70;99.90;;;;;;5076747;28;20074;-62
2024/01/19 12:48:34;;;;;;;4.63;1.10;;;3.40;99.90;;;;;;5077779;28;20044;-62
2024/01/19 12:51:07;;;;;;;6.95;1.02;;;3.90;99.90;;;;;;5078726;28;20052;-63